createdAt,value
2022-12-22T00:00:11.059Z,0.00
2022-12-22T00:01:11.085Z,0.00
2022-12-22T00:02:11.285Z,0.00
2022-12-22T00:03:11.354Z,0.00
2022-12-22T00:04:11.268Z,0.00
2022-12-22T00:05:11.121Z,0.00
2022-12-22T00:06:11.142Z,0.00
2022-12-22T00:07:11.161Z,0.00
2022-12-22T00:08:11.170Z,0.00
2022-12-22T00:09:11.219Z,0.00
2022-12-22T00:10:11.246Z,0.00
2022-12-22T00:11:11.232Z,0.00
2022-12-22T00:12:11.252Z,0.00
2022-12-22T00:13:11.277Z,0.00
2022-12-22T00:14:11.312Z,0.00
2022-12-22T00:15:11.339Z,0.00
2022-12-22T00:16:11.388Z,0.00
2022-12-22T00:17:11.374Z,0.00
2022-12-22T00:18:11.332Z,0.00
2022-12-22T00:19:11.350Z,0.00
2022-12-22T00:20:18.162Z,0.00
2022-12-22T00:21:11.394Z,0.00
2022-12-22T00:22:11.413Z,0.00
2022-12-22T00:23:11.458Z,0.00
2022-12-22T00:24:11.465Z,0.00
2022-12-22T00:25:11.543Z,0.00
2022-12-22T00:26:11.502Z,0.00
2022-12-22T00:27:11.524Z,0.00
2022-12-22T00:28:11.560Z,0.00
2022-12-22T00:29:11.571Z,0.00
2022-12-22T00:30:11.574Z,0.00
2022-12-22T00:31:11.680Z,0.00
2022-12-22T00:32:11.604Z,0.00
2022-12-22T00:33:11.618Z,0.00
2022-12-22T00:34:11.637Z,0.00
2022-12-22T00:35:11.683Z,0.00
2022-12-22T00:36:11.665Z,0.00
2022-12-22T00:37:11.669Z,0.00
2022-12-22T00:38:11.699Z,0.00
2022-12-22T00:39:11.651Z,0.00
2022-12-22T00:40:11.690Z,0.00
2022-12-22T00:41:11.739Z,0.00
2022-12-22T00:42:11.757Z,0.00
2022-12-22T00:43:11.773Z,0.00
2022-12-22T00:44:11.800Z,0.00
2022-12-22T00:45:11.824Z,0.00
2022-12-22T00:46:11.915Z,0.00
2022-12-22T00:47:11.868Z,0.00
2022-12-22T00:48:11.893Z,0.00
2022-12-22T00:49:11.907Z,0.00
2022-12-22T00:50:11.941Z,0.00
2022-12-22T00:51:11.910Z,0.00
2022-12-22T00:52:11.933Z,0.00
2022-12-22T00:53:11.948Z,0.00
2022-12-22T00:54:11.971Z,0.00
2022-12-22T00:55:11.989Z,0.00
2022-12-22T00:56:11.972Z,0.00
2022-12-22T00:57:12.021Z,0.00
2022-12-22T00:58:12.046Z,0.00
2022-12-22T00:59:12.061Z,0.00
2022-12-22T01:00:12.097Z,0.00
2022-12-22T01:01:12.094Z,0.00
2022-12-22T01:02:12.327Z,0.00
2022-12-22T01:03:12.220Z,0.00
2022-12-22T01:04:12.082Z,0.00
2022-12-22T01:05:12.108Z,0.00
2022-12-22T01:06:12.134Z,0.00
2022-12-22T01:07:12.176Z,0.00
2022-12-22T01:08:12.192Z,0.00
2022-12-22T01:09:12.214Z,0.00
2022-12-22T01:10:12.239Z,0.00
2022-12-22T01:11:12.257Z,0.00
2022-12-22T01:12:12.261Z,0.00
2022-12-22T01:13:12.307Z,0.00
2022-12-22T01:14:12.322Z,0.00
2022-12-22T01:15:12.332Z,0.00
2022-12-22T01:16:12.413Z,0.00
2022-12-22T01:17:12.366Z,0.00
2022-12-22T01:18:12.400Z,0.00
2022-12-22T01:19:12.370Z,0.00
2022-12-22T01:20:12.387Z,0.00
2022-12-22T01:21:12.406Z,0.00
2022-12-22T01:22:12.446Z,0.00
2022-12-22T01:23:12.547Z,0.00
2022-12-22T01:24:12.466Z,0.00
2022-12-22T01:25:12.463Z,0.00
2022-12-22T01:26:12.465Z,0.00
2022-12-22T01:27:12.512Z,0.00
2022-12-22T01:28:12.533Z,0.00
2022-12-22T01:29:12.580Z,0.00
2022-12-22T01:30:12.530Z,0.00
2022-12-22T01:31:12.632Z,0.00
2022-12-22T01:32:12.601Z,0.00
2022-12-22T01:33:12.601Z,0.00
2022-12-22T01:34:12.605Z,0.00
2022-12-22T01:35:12.625Z,0.00
2022-12-22T01:36:12.646Z,0.00
2022-12-22T01:37:12.705Z,0.00
2022-12-22T01:38:12.667Z,0.00
2022-12-22T01:39:12.684Z,0.00
2022-12-22T01:40:12.714Z,0.00
2022-12-22T01:41:12.761Z,0.00
2022-12-22T01:42:12.761Z,0.00
2022-12-22T01:43:12.710Z,0.00
2022-12-22T01:44:12.720Z,0.00
2022-12-22T01:45:12.773Z,0.00
2022-12-22T01:46:12.793Z,0.00
2022-12-22T01:47:12.810Z,0.00
2022-12-22T01:48:12.768Z,0.00
2022-12-22T01:49:12.806Z,0.00
2022-12-22T01:50:12.816Z,0.00
2022-12-22T01:51:12.835Z,0.00
2022-12-22T01:52:12.893Z,0.00
2022-12-22T01:53:19.510Z,0.00
2022-12-22T01:54:12.857Z,0.00
2022-12-22T01:55:12.888Z,0.00
2022-12-22T01:56:12.946Z,0.00
2022-12-22T01:57:12.931Z,0.00
2022-12-22T01:58:12.932Z,0.00
2022-12-22T01:59:13.023Z,0.00
2022-12-22T02:00:13.016Z,0.00
2022-12-22T02:01:13.047Z,0.00
2022-12-22T02:02:13.201Z,0.00
2022-12-22T02:03:13.053Z,0.00
2022-12-22T02:04:13.068Z,0.00
2022-12-22T02:05:13.035Z,0.00
2022-12-22T02:06:13.067Z,0.00
2022-12-22T02:07:13.080Z,0.00
2022-12-22T02:08:13.093Z,0.00
2022-12-22T02:09:13.098Z,0.00
2022-12-22T02:10:13.129Z,0.00
2022-12-22T02:11:13.146Z,0.00
2022-12-22T02:12:13.171Z,0.00
2022-12-22T02:13:13.188Z,0.00
2022-12-22T02:14:13.201Z,0.00
2022-12-22T02:15:13.231Z,0.00
2022-12-22T02:16:13.253Z,0.00
2022-12-22T02:17:13.250Z,0.00
2022-12-22T02:18:13.229Z,0.00
2022-12-22T02:19:13.255Z,0.00
2022-12-22T02:20:13.312Z,0.00
2022-12-22T02:21:13.311Z,0.00
2022-12-22T02:22:13.381Z,0.00
2022-12-22T02:23:13.379Z,0.00
2022-12-22T02:24:13.367Z,0.00
2022-12-22T02:25:13.398Z,0.00
2022-12-22T02:26:13.365Z,0.00
2022-12-22T02:27:13.413Z,0.00
2022-12-22T02:28:13.381Z,0.00
2022-12-22T02:29:13.392Z,0.00
2022-12-22T02:30:13.415Z,0.00
2022-12-22T02:31:13.511Z,0.00
2022-12-22T02:32:13.463Z,0.00
2022-12-22T02:33:13.491Z,0.00
2022-12-22T02:34:13.506Z,0.00
2022-12-22T02:35:13.524Z,0.00
2022-12-22T02:36:13.557Z,0.00
2022-12-22T02:37:13.571Z,0.00
2022-12-22T02:38:13.590Z,0.00
2022-12-22T02:39:13.598Z,0.00
2022-12-22T02:40:13.635Z,0.00
2022-12-22T02:41:13.650Z,0.00
2022-12-22T02:42:13.697Z,0.00
2022-12-22T02:43:13.668Z,0.00
2022-12-22T02:44:13.675Z,0.00
2022-12-22T02:45:13.723Z,0.00
2022-12-22T02:46:13.801Z,0.00
2022-12-22T02:47:13.725Z,0.00
2022-12-22T02:48:13.731Z,0.00
2022-12-22T02:49:13.800Z,0.00
2022-12-22T02:50:13.779Z,0.00
2022-12-22T02:51:13.785Z,0.00
2022-12-22T02:52:13.805Z,0.00
2022-12-22T02:53:13.799Z,0.00
2022-12-22T02:54:13.820Z,0.00
2022-12-22T02:55:13.853Z,0.00
2022-12-22T02:56:13.863Z,0.00
2022-12-22T02:57:13.872Z,0.00
2022-12-22T02:58:13.890Z,0.00
2022-12-22T02:59:13.895Z,0.00
2022-12-22T03:00:13.908Z,0.00
2022-12-22T03:01:14.147Z,0.00
2022-12-22T03:02:14.160Z,0.00
2022-12-22T03:03:14.095Z,0.00
2022-12-22T03:04:13.939Z,0.00
2022-12-22T03:05:13.993Z,0.00
2022-12-22T03:06:13.959Z,0.00
2022-12-22T03:07:13.991Z,0.00
2022-12-22T03:08:13.962Z,0.00
2022-12-22T03:09:13.992Z,0.00
2022-12-22T03:10:14.000Z,0.00
2022-12-22T03:11:14.015Z,0.00
2022-12-22T03:12:14.034Z,0.00
2022-12-22T03:13:14.036Z,0.00
2022-12-22T03:14:14.048Z,0.00
2022-12-22T03:15:14.072Z,0.00
2022-12-22T03:16:14.168Z,0.00
2022-12-22T03:17:14.074Z,0.00
2022-12-22T03:18:14.095Z,0.00
2022-12-22T03:19:14.112Z,0.00
2022-12-22T03:20:14.107Z,0.00
2022-12-22T03:21:14.171Z,0.00
2022-12-22T03:22:14.165Z,0.00
2022-12-22T03:23:14.129Z,0.00
2022-12-22T03:24:14.143Z,0.00
2022-12-22T03:25:14.152Z,0.00
2022-12-22T03:26:14.172Z,0.00
2022-12-22T03:27:14.235Z,0.00
2022-12-22T03:28:14.200Z,0.00
2022-12-22T03:29:14.222Z,0.00
2022-12-22T03:30:14.218Z,0.00
2022-12-22T03:31:14.322Z,0.00
2022-12-22T03:32:14.264Z,0.00
2022-12-22T03:33:14.257Z,0.00
2022-12-22T03:34:14.276Z,0.00
2022-12-22T03:35:14.305Z,0.00
2022-12-22T03:36:14.346Z,0.00
2022-12-22T03:37:14.401Z,0.00
2022-12-22T03:38:14.367Z,0.00
2022-12-22T03:39:14.381Z,0.00
2022-12-22T03:40:14.401Z,0.00
2022-12-22T03:41:14.432Z,0.00
2022-12-22T03:42:14.465Z,0.00
2022-12-22T03:43:14.447Z,0.00
2022-12-22T03:44:14.457Z,0.00
2022-12-22T03:45:14.462Z,0.00
2022-12-22T03:46:14.509Z,0.00
2022-12-22T03:47:14.629Z,0.00
2022-12-22T03:48:14.513Z,0.00
2022-12-22T03:49:14.531Z,0.00
2022-12-22T03:50:14.591Z,0.00
2022-12-22T03:51:14.525Z,0.00
2022-12-22T03:52:14.568Z,0.00
2022-12-22T03:53:14.561Z,0.00
2022-12-22T03:54:14.525Z,0.00
2022-12-22T03:55:14.525Z,0.00
2022-12-22T03:56:14.561Z,0.00
2022-12-22T03:57:14.572Z,0.00
2022-12-22T03:58:14.592Z,0.00
2022-12-22T03:59:14.606Z,0.00
2022-12-22T04:00:14.619Z,0.00
2022-12-22T04:01:14.731Z,0.00
2022-12-22T04:02:14.720Z,0.00
2022-12-22T04:03:14.867Z,0.00
2022-12-22T04:04:14.689Z,0.00
2022-12-22T04:05:14.715Z,0.00
2022-12-22T04:06:14.733Z,0.00
2022-12-22T04:07:14.727Z,0.00
2022-12-22T04:08:14.751Z,0.00
2022-12-22T04:09:14.798Z,0.00
2022-12-22T04:10:14.799Z,0.00
2022-12-22T04:11:14.842Z,0.00
2022-12-22T04:12:14.822Z,0.00
2022-12-22T04:13:14.862Z,0.00
2022-12-22T04:14:14.876Z,0.00
2022-12-22T04:15:14.911Z,0.00
2022-12-22T04:16:14.962Z,0.00
2022-12-22T04:17:14.946Z,0.00
2022-12-22T04:18:14.968Z,0.00
2022-12-22T04:19:14.969Z,0.00
2022-12-22T04:20:14.981Z,0.00
2022-12-22T04:21:15.003Z,0.00
2022-12-22T04:22:15.061Z,0.00
2022-12-22T04:23:15.037Z,0.00
2022-12-22T04:24:15.041Z,0.00
2022-12-22T04:25:15.111Z,0.00
2022-12-22T04:26:15.075Z,0.00
2022-12-22T04:27:15.103Z,0.00
2022-12-22T04:28:15.177Z,0.00
2022-12-22T04:29:15.068Z,0.00
2022-12-22T04:30:15.090Z,0.00
2022-12-22T04:31:15.096Z,0.00
2022-12-22T04:32:15.269Z,0.00
2022-12-22T04:33:15.116Z,0.00
2022-12-22T04:34:15.164Z,0.00
2022-12-22T04:35:15.132Z,0.00
2022-12-22T04:36:15.418Z,0.00
2022-12-22T04:37:17.769Z,0.00
2022-12-22T04:38:15.202Z,0.00
2022-12-22T04:39:15.219Z,0.00
2022-12-22T04:40:15.237Z,0.00
2022-12-22T04:41:15.274Z,0.00
2022-12-22T04:42:15.289Z,0.00
2022-12-22T04:43:15.307Z,0.00
2022-12-22T04:44:15.314Z,0.00
2022-12-22T04:45:15.332Z,0.00
2022-12-22T04:46:15.405Z,0.00
2022-12-22T04:47:15.359Z,0.00
2022-12-22T04:48:15.387Z,0.00
2022-12-22T04:49:15.360Z,0.00
2022-12-22T04:50:15.382Z,0.00
2022-12-22T04:51:15.400Z,0.00
2022-12-22T04:52:15.407Z,0.00
2022-12-22T04:53:15.439Z,0.00
2022-12-22T04:54:15.452Z,0.00
2022-12-22T04:55:15.471Z,0.00
2022-12-22T04:56:15.502Z,0.00
2022-12-22T04:57:15.537Z,0.00
2022-12-22T04:58:15.543Z,0.00
2022-12-22T04:59:15.554Z,0.00
2022-12-22T05:00:15.565Z,0.00
2022-12-22T05:01:15.802Z,0.00
2022-12-22T05:02:15.776Z,0.00
2022-12-22T05:03:15.696Z,0.00
2022-12-22T05:04:20.282Z,0.00
2022-12-22T05:05:15.635Z,0.00
2022-12-22T05:06:15.661Z,0.00
2022-12-22T05:07:15.681Z,0.00
2022-12-22T05:08:15.724Z,0.00
2022-12-22T05:09:15.726Z,0.00
2022-12-22T05:10:15.747Z,0.00
2022-12-22T05:11:15.727Z,0.00
2022-12-22T05:12:15.784Z,0.00
2022-12-22T05:13:15.787Z,0.00
2022-12-22T05:14:15.790Z,0.00
2022-12-22T05:15:15.847Z,0.00
2022-12-22T05:16:15.866Z,0.00
2022-12-22T05:17:15.857Z,0.00
2022-12-22T05:18:15.853Z,0.00
2022-12-22T05:19:15.867Z,0.00
2022-12-22T05:20:15.841Z,0.00
2022-12-22T05:21:15.885Z,0.00
2022-12-22T05:22:15.886Z,0.00
2022-12-22T05:23:15.910Z,0.00
2022-12-22T05:24:15.917Z,0.00
2022-12-22T05:25:15.968Z,0.00
2022-12-22T05:26:15.993Z,0.00
2022-12-22T05:27:16.010Z,0.00
2022-12-22T05:28:16.031Z,0.00
2022-12-22T05:29:16.070Z,0.00
2022-12-22T05:30:16.070Z,0.00
2022-12-22T05:31:16.156Z,0.00
2022-12-22T05:32:16.100Z,0.00
2022-12-22T05:33:16.122Z,0.00
2022-12-22T05:34:16.158Z,0.00
2022-12-22T05:35:16.160Z,0.00
2022-12-22T05:36:16.213Z,0.00
2022-12-22T05:37:16.247Z,0.00
2022-12-22T05:38:16.170Z,0.00
2022-12-22T05:39:16.178Z,0.00
2022-12-22T05:40:16.227Z,0.00
2022-12-22T05:41:16.226Z,0.00
2022-12-22T05:42:16.250Z,0.00
2022-12-22T05:43:16.300Z,0.00
2022-12-22T05:44:16.302Z,0.00
2022-12-22T05:45:16.420Z,0.00
2022-12-22T05:46:16.362Z,0.00
2022-12-22T05:47:16.317Z,0.00
2022-12-22T05:48:18.875Z,0.00
2022-12-22T05:49:16.326Z,0.00
2022-12-22T05:50:16.357Z,0.00
2022-12-22T05:51:16.317Z,0.00
2022-12-22T05:52:16.356Z,0.00
2022-12-22T05:53:16.360Z,0.00
2022-12-22T05:54:16.384Z,0.00
2022-12-22T05:55:16.396Z,0.00
2022-12-22T05:56:16.402Z,0.00
2022-12-22T05:57:16.430Z,0.00
2022-12-22T05:58:16.434Z,0.00
2022-12-22T05:59:16.459Z,0.00
2022-12-22T06:01:42.429Z,0.00
2022-12-22T06:02:42.541Z,0.00
2022-12-22T06:03:42.560Z,0.00
2022-12-22T06:04:42.382Z,0.00
2022-12-22T06:05:42.381Z,0.00
2022-12-22T06:06:42.380Z,0.00
2022-12-22T06:07:42.419Z,0.00
2022-12-22T06:08:42.441Z,0.00
2022-12-22T06:09:42.484Z,0.00
2022-12-22T06:10:42.535Z,0.00
2022-12-22T06:11:42.498Z,0.00
2022-12-22T06:12:42.524Z,0.00
2022-12-22T06:13:42.564Z,0.00
2022-12-22T06:14:42.546Z,0.00
2022-12-22T06:15:42.697Z,0.00
2022-12-22T06:16:42.604Z,0.00
2022-12-22T06:17:45.089Z,0.00
2022-12-22T06:18:42.596Z,0.00
2022-12-22T06:19:42.672Z,0.00
2022-12-22T06:20:42.623Z,0.00
2022-12-22T06:21:42.624Z,0.00
2022-12-22T06:22:42.658Z,0.00
2022-12-22T06:23:42.673Z,0.00
2022-12-22T06:24:42.675Z,0.00
2022-12-22T06:25:42.709Z,0.00
2022-12-22T06:26:42.720Z,0.00
2022-12-22T06:27:42.751Z,0.00
2022-12-22T06:28:42.725Z,0.00
2022-12-22T06:29:42.739Z,0.00
2022-12-22T06:30:42.770Z,0.00
2022-12-22T06:31:42.869Z,0.00
2022-12-22T06:32:42.929Z,0.00
2022-12-22T06:33:42.798Z,0.00
2022-12-22T06:34:42.793Z,0.00
2022-12-22T06:35:42.780Z,0.00
2022-12-22T06:36:42.793Z,0.00
2022-12-22T06:37:42.834Z,0.00
2022-12-22T06:38:42.850Z,0.00
2022-12-22T06:39:42.865Z,0.00
2022-12-22T06:40:42.887Z,0.00
2022-12-22T06:41:42.897Z,0.00
2022-12-22T06:42:42.935Z,0.00
2022-12-22T06:43:42.954Z,0.00
2022-12-22T06:44:43.068Z,0.00
2022-12-22T06:45:43.005Z,0.00
2022-12-22T06:46:43.235Z,0.00
2022-12-22T06:47:43.083Z,1.00
2022-12-22T06:48:43.047Z,1.00
2022-12-22T06:49:43.092Z,1.00
2022-12-22T06:50:43.051Z,1.00
2022-12-22T06:51:43.060Z,1.00
2022-12-22T06:52:43.080Z,1.00
2022-12-22T06:53:43.118Z,1.00
2022-12-22T06:54:43.155Z,1.00
2022-12-22T06:55:43.131Z,1.00
2022-12-22T06:56:43.173Z,2.00
2022-12-22T06:57:43.187Z,1.00
2022-12-22T06:58:43.210Z,1.00
2022-12-22T06:59:43.167Z,2.00
2022-12-22T07:00:43.189Z,2.00
2022-12-22T07:01:43.501Z,2.00
2022-12-22T07:02:43.429Z,3.00
2022-12-22T07:03:43.241Z,3.00
2022-12-22T07:04:43.201Z,4.00
2022-12-22T07:05:43.228Z,4.00
2022-12-22T07:06:43.233Z,4.00
2022-12-22T07:07:43.298Z,6.00
2022-12-22T07:08:43.250Z,6.00
2022-12-22T07:09:43.352Z,5.00
2022-12-22T07:10:43.257Z,5.00
2022-12-22T07:11:43.293Z,4.00
2022-12-22T07:12:43.264Z,5.00
2022-12-22T07:13:43.292Z,4.00
2022-12-22T07:14:43.269Z,5.00
2022-12-22T07:15:43.381Z,6.00
2022-12-22T07:16:43.440Z,6.00
2022-12-22T07:17:43.322Z,10.00
2022-12-22T07:18:43.366Z,11.00
2022-12-22T07:19:43.341Z,13.00
2022-12-22T07:20:43.364Z,16.00
2022-12-22T07:21:43.438Z,19.00
2022-12-22T07:22:43.394Z,19.00
2022-12-22T07:23:43.425Z,301.00
2022-12-22T07:24:43.467Z,396.00
2022-12-22T07:25:43.432Z,424.00
2022-12-22T07:26:43.518Z,433.00
2022-12-22T07:27:43.484Z,437.00
2022-12-22T07:28:43.621Z,443.00
2022-12-22T07:29:43.514Z,446.00
2022-12-22T07:30:43.523Z,445.00
2022-12-22T07:31:43.599Z,440.00
2022-12-22T07:32:43.562Z,438.00
2022-12-22T07:33:43.590Z,435.00
2022-12-22T07:34:43.570Z,437.00
2022-12-22T07:35:43.576Z,442.00
2022-12-22T07:36:43.573Z,448.00
2022-12-22T07:37:43.587Z,450.00
2022-12-22T07:38:43.599Z,31.00
2022-12-22T07:39:43.610Z,29.00
2022-12-22T07:40:47.961Z,31.00
2022-12-22T07:41:43.655Z,36.00
2022-12-22T07:42:43.661Z,39.00
2022-12-22T07:43:43.680Z,45.00
2022-12-22T07:44:43.694Z,58.00
2022-12-22T07:45:43.728Z,68.00
2022-12-22T07:46:43.820Z,66.00
2022-12-22T07:47:43.826Z,76.00
2022-12-22T07:48:43.776Z,87.00
2022-12-22T07:49:43.796Z,86.00
2022-12-22T07:50:43.825Z,101.00
2022-12-22T07:51:43.831Z,106.00
2022-12-22T07:52:43.843Z,336.00
2022-12-22T07:53:43.891Z,445.00
2022-12-22T07:54:43.945Z,461.00
2022-12-22T07:55:43.915Z,475.00
2022-12-22T07:56:43.928Z,480.00
2022-12-22T07:57:43.912Z,477.00
2022-12-22T07:58:43.971Z,476.00
2022-12-22T07:59:43.958Z,466.00
2022-12-22T08:00:43.939Z,460.00
2022-12-22T08:01:44.182Z,482.00
2022-12-22T08:02:44.217Z,474.00
2022-12-22T08:03:43.965Z,474.00
2022-12-22T08:04:44.164Z,70.00
2022-12-22T08:05:43.985Z,91.00
2022-12-22T08:06:44.052Z,113.00
2022-12-22T08:07:44.006Z,99.00
2022-12-22T08:08:44.012Z,90.00
2022-12-22T08:09:44.030Z,98.00
2022-12-22T08:10:44.029Z,104.00
2022-12-22T08:11:44.093Z,87.00
2022-12-22T08:12:44.326Z,83.00
2022-12-22T08:13:44.052Z,98.00
2022-12-22T08:14:44.123Z,98.00
2022-12-22T08:15:44.158Z,102.00
2022-12-22T08:16:44.209Z,103.00
2022-12-22T08:17:44.163Z,74.00
2022-12-22T08:18:44.152Z,76.00
2022-12-22T08:19:44.183Z,72.00
2022-12-22T08:20:44.150Z,55.00
2022-12-22T08:21:50.298Z,49.00
2022-12-22T08:22:44.198Z,51.00
2022-12-22T08:23:44.207Z,50.00
2022-12-22T08:24:44.226Z,54.00
2022-12-22T08:25:44.243Z,54.00
2022-12-22T08:26:44.258Z,52.00
2022-12-22T08:27:44.309Z,58.00
2022-12-22T08:28:44.278Z,55.00
2022-12-22T08:29:44.359Z,61.00
2022-12-22T08:30:44.293Z,77.00
2022-12-22T08:31:44.475Z,102.00
2022-12-22T08:32:44.293Z,88.00
2022-12-22T08:33:44.363Z,335.00
2022-12-22T08:34:44.324Z,457.00
2022-12-22T08:35:44.289Z,493.00
2022-12-22T08:36:44.298Z,515.00
2022-12-22T08:37:44.318Z,521.00
2022-12-22T08:38:44.338Z,516.00
2022-12-22T08:39:44.402Z,513.00
2022-12-22T08:40:44.386Z,548.00
2022-12-22T08:41:44.424Z,547.00
2022-12-22T08:42:44.417Z,538.00
2022-12-22T08:43:44.446Z,553.00
2022-12-22T08:44:44.427Z,584.00
2022-12-22T08:45:44.416Z,614.00
2022-12-22T08:46:44.526Z,672.00
2022-12-22T08:47:44.446Z,234.00
2022-12-22T08:48:44.487Z,224.00
2022-12-22T08:49:44.478Z,165.00
2022-12-22T08:50:44.484Z,138.00
2022-12-22T08:51:44.537Z,174.00
2022-12-22T08:52:44.519Z,175.00
2022-12-22T08:54:04.488Z,200.00
2022-12-22T08:54:44.528Z,236.00
2022-12-22T08:55:44.512Z,314.00
2022-12-22T08:56:44.573Z,317.00
2022-12-22T08:57:44.585Z,336.00
2022-12-22T08:58:44.624Z,291.00
2022-12-22T08:59:44.551Z,282.00
2022-12-22T09:00:44.626Z,284.00
2022-12-22T09:01:44.911Z,267.00
2022-12-22T09:02:44.858Z,192.00
2022-12-22T09:03:44.602Z,342.00
2022-12-22T09:04:44.598Z,333.00
2022-12-22T09:05:44.581Z,363.00
2022-12-22T09:06:44.565Z,298.00
2022-12-22T09:07:44.577Z,271.00
2022-12-22T09:08:44.653Z,244.00
2022-12-22T09:09:44.666Z,251.00
2022-12-22T09:10:44.631Z,268.00
2022-12-22T09:11:44.663Z,297.00
2022-12-22T09:12:44.729Z,314.00
2022-12-22T09:13:44.718Z,359.00
2022-12-22T09:14:44.773Z,409.00
2022-12-22T09:15:44.759Z,418.00
2022-12-22T09:16:44.947Z,456.00
2022-12-22T09:17:44.744Z,426.00
2022-12-22T09:18:44.769Z,389.00
2022-12-22T09:19:44.828Z,372.00
2022-12-22T09:20:44.794Z,426.00
2022-12-22T09:21:44.813Z,399.00
2022-12-22T09:22:44.845Z,447.00
2022-12-22T09:23:44.862Z,584.00
2022-12-22T09:24:44.857Z,580.00
2022-12-22T09:25:44.845Z,527.00
2022-12-22T09:26:44.843Z,635.00
2022-12-22T09:27:44.837Z,622.00
2022-12-22T09:28:49.806Z,535.00
2022-12-22T09:29:44.881Z,453.00
2022-12-22T09:30:44.879Z,395.00
2022-12-22T09:31:45.127Z,427.00
2022-12-22T09:32:44.883Z,407.00
2022-12-22T09:33:44.935Z,411.00
2022-12-22T09:34:44.906Z,401.00
2022-12-22T09:35:44.943Z,363.00
2022-12-22T09:36:45.037Z,395.00
2022-12-22T09:37:45.020Z,403.00
2022-12-22T09:38:45.005Z,434.00
2022-12-22T09:39:45.027Z,425.00
2022-12-22T09:40:45.043Z,404.00
2022-12-22T09:41:45.044Z,416.00
2022-12-22T09:42:45.094Z,419.00
2022-12-22T09:43:45.082Z,467.00
2022-12-22T09:44:45.139Z,488.00
2022-12-22T09:45:45.176Z,532.00
2022-12-22T09:46:45.085Z,545.00
2022-12-22T09:47:45.114Z,575.00
2022-12-22T09:48:45.162Z,683.00
2022-12-22T09:49:45.111Z,760.00
2022-12-22T09:50:45.161Z,800.00
2022-12-22T09:51:45.098Z,825.00
2022-12-22T09:52:45.132Z,708.00
2022-12-22T09:53:45.176Z,823.00
2022-12-22T09:54:45.145Z,878.00
2022-12-22T09:55:45.204Z,884.00
2022-12-22T09:56:45.218Z,935.00
2022-12-22T09:57:45.250Z,925.00
2022-12-22T09:58:45.307Z,812.00
2022-12-22T09:59:45.287Z,817.00
2022-12-22T10:00:45.343Z,842.00
2022-12-22T10:01:45.486Z,752.00
2022-12-22T10:02:45.634Z,575.00
2022-12-22T10:03:45.454Z,456.00
2022-12-22T10:04:45.352Z,413.00
2022-12-22T10:05:45.409Z,371.00
2022-12-22T10:06:46.079Z,370.00
2022-12-22T10:07:45.397Z,366.00
2022-12-22T10:08:45.391Z,403.00
2022-12-22T10:09:50.266Z,432.00
2022-12-22T10:10:45.406Z,447.00
2022-12-22T10:11:45.381Z,479.00
2022-12-22T10:12:45.412Z,465.00
2022-12-22T10:13:45.395Z,470.00
2022-12-22T10:14:45.424Z,478.00
2022-12-22T10:15:45.443Z,496.00
2022-12-22T10:16:45.516Z,527.00
2022-12-22T10:17:45.480Z,525.00
2022-12-22T10:18:45.490Z,497.00
2022-12-22T10:19:45.514Z,497.00
2022-12-22T10:20:45.549Z,432.00
2022-12-22T10:21:47.156Z,393.00
2022-12-22T10:22:45.530Z,508.00
2022-12-22T10:23:45.575Z,479.00
2022-12-22T10:24:45.544Z,411.00
2022-12-22T10:26:25.893Z,385.00
2022-12-22T10:26:45.587Z,475.00
2022-12-22T10:27:51.339Z,349.00
2022-12-22T10:28:45.570Z,335.00
2022-12-22T10:29:45.603Z,378.00
2022-12-22T10:30:45.583Z,282.00
2022-12-22T10:31:45.650Z,349.00
2022-12-22T10:32:45.635Z,439.00
2022-12-22T10:33:47.542Z,300.00
2022-12-22T10:34:45.683Z,318.00
2022-12-22T10:35:45.655Z,334.00
2022-12-22T10:36:45.687Z,286.00
2022-12-22T10:37:45.785Z,615.00
2022-12-22T10:38:45.737Z,664.00
2022-12-22T10:39:45.728Z,671.00
2022-12-22T10:40:45.723Z,685.00
2022-12-22T10:41:45.753Z,668.00
2022-12-22T10:42:45.734Z,738.00
2022-12-22T10:43:45.747Z,713.00
2022-12-22T10:44:45.791Z,664.00
2022-12-22T10:45:45.817Z,642.00
2022-12-22T10:46:45.810Z,634.00
2022-12-22T10:47:45.801Z,210.00
2022-12-22T10:48:45.834Z,223.00
2022-12-22T10:49:45.848Z,232.00
2022-12-22T10:50:45.824Z,236.00
2022-12-22T10:51:45.799Z,250.00
2022-12-22T10:52:45.869Z,263.00
2022-12-22T10:53:45.839Z,250.00
2022-12-22T10:54:45.865Z,311.00
2022-12-22T10:55:45.889Z,286.00
2022-12-22T10:56:45.889Z,261.00
2022-12-22T10:57:45.899Z,307.00
2022-12-22T10:58:45.878Z,305.00
2022-12-22T10:59:45.889Z,290.00
2022-12-22T11:00:45.903Z,288.00
2022-12-22T11:01:46.158Z,279.00
2022-12-22T11:02:45.990Z,322.00
2022-12-22T11:03:46.011Z,337.00
2022-12-22T11:04:45.900Z,349.00
2022-12-22T11:05:45.927Z,342.00
2022-12-22T11:06:45.884Z,345.00
2022-12-22T11:07:45.904Z,377.00
2022-12-22T11:08:51.252Z,412.00
2022-12-22T11:09:45.969Z,448.00
2022-12-22T11:10:45.940Z,477.00
2022-12-22T11:11:45.996Z,506.00
2022-12-22T11:12:45.962Z,499.00
2022-12-22T11:13:45.998Z,491.00
2022-12-22T11:14:46.027Z,468.00
2022-12-22T11:15:46.015Z,457.00
2022-12-22T11:16:46.116Z,445.00
2022-12-22T11:17:46.065Z,420.00
2022-12-22T11:18:46.017Z,417.00
2022-12-22T11:19:46.088Z,429.00
2022-12-22T11:20:46.065Z,450.00
2022-12-22T11:21:46.105Z,458.00
2022-12-22T11:22:46.167Z,473.00
2022-12-22T11:23:46.102Z,458.00
2022-12-22T11:24:46.102Z,467.00
2022-12-22T11:25:46.155Z,517.00
2022-12-22T11:26:46.115Z,549.00
2022-12-22T11:27:46.558Z,587.00
2022-12-22T11:28:46.190Z,601.00
2022-12-22T11:29:46.233Z,583.00
2022-12-22T11:30:46.277Z,599.00
2022-12-22T11:31:46.243Z,561.00
2022-12-22T11:32:46.285Z,521.00
2022-12-22T11:33:46.295Z,476.00
2022-12-22T11:34:46.304Z,557.00
2022-12-22T11:35:46.284Z,534.00
2022-12-22T11:36:46.272Z,543.00
2022-12-22T11:37:46.336Z,561.00
2022-12-22T11:38:46.284Z,493.00
2022-12-22T11:39:46.335Z,530.00
2022-12-22T11:40:46.337Z,455.00
2022-12-22T11:41:46.335Z,433.00
2022-12-22T11:42:46.347Z,425.00
2022-12-22T11:43:46.333Z,409.00
2022-12-22T11:44:46.417Z,410.00
2022-12-22T11:45:46.359Z,380.00
2022-12-22T11:46:46.428Z,321.00
2022-12-22T11:47:46.326Z,394.00
2022-12-22T11:48:46.358Z,456.00
2022-12-22T11:49:46.341Z,422.00
2022-12-22T11:50:59.083Z,498.00
2022-12-22T11:51:46.373Z,451.00
2022-12-22T11:52:46.361Z,373.00
2022-12-22T11:53:46.450Z,375.00
2022-12-22T11:54:46.432Z,648.00
2022-12-22T11:55:46.455Z,768.00
2022-12-22T11:56:46.425Z,838.00
2022-12-22T11:57:46.468Z,786.00
2022-12-22T11:58:46.482Z,735.00
2022-12-22T11:59:46.473Z,702.00
2022-12-22T12:01:13.666Z,664.00
2022-12-22T12:01:46.607Z,668.00
2022-12-22T12:02:46.615Z,687.00
2022-12-22T12:03:46.646Z,702.00
2022-12-22T12:04:46.562Z,703.00
2022-12-22T12:05:46.589Z,762.00
2022-12-22T12:06:46.628Z,859.00
2022-12-22T12:07:46.611Z,793.00
2022-12-22T12:08:46.611Z,828.00
2022-12-22T12:09:47.161Z,902.00
2022-12-22T12:10:46.615Z,883.00
2022-12-22T12:11:46.593Z,810.00
2022-12-22T12:12:46.650Z,703.00
2022-12-22T12:13:46.675Z,677.00
2022-12-22T12:14:46.661Z,644.00
2022-12-22T12:15:46.761Z,677.00
2022-12-22T12:16:46.712Z,683.00
2022-12-22T12:17:46.696Z,705.00
2022-12-22T12:18:46.743Z,325.00
2022-12-22T12:19:46.732Z,315.00
2022-12-22T12:20:46.755Z,262.00
2022-12-22T12:21:46.743Z,213.00
2022-12-22T12:22:46.744Z,219.00
2022-12-22T12:23:46.731Z,232.00
2022-12-22T12:24:46.796Z,366.00
2022-12-22T12:25:46.832Z,362.00
2022-12-22T12:26:46.711Z,370.00
2022-12-22T12:27:46.721Z,436.00
2022-12-22T12:28:46.759Z,356.00
2022-12-22T12:30:06.264Z,361.00
2022-12-22T12:30:46.808Z,320.00
2022-12-22T12:31:46.901Z,338.00
2022-12-22T12:32:46.763Z,375.00
2022-12-22T12:33:46.798Z,315.00
2022-12-22T12:34:46.789Z,350.00
2022-12-22T12:35:46.777Z,330.00
2022-12-22T12:36:46.802Z,296.00
2022-12-22T12:37:46.839Z,374.00
2022-12-22T12:39:46.879Z,349.00
2022-12-22T12:40:46.888Z,297.00
2022-12-22T12:41:47.025Z,296.00
2022-12-22T12:42:46.990Z,416.00
2022-12-22T12:43:47.003Z,418.00
2022-12-22T12:44:47.023Z,380.00
2022-12-22T12:45:47.028Z,395.00
2022-12-22T12:46:47.051Z,395.00
2022-12-22T12:47:47.030Z,450.00
2022-12-22T12:48:47.059Z,417.00
2022-12-22T12:49:47.075Z,484.00
2022-12-22T12:50:47.442Z,501.00
2022-12-22T12:51:47.260Z,488.00
2022-12-22T12:52:47.132Z,429.00
2022-12-22T12:53:47.111Z,392.00
2022-12-22T12:54:47.101Z,299.00
2022-12-22T12:55:47.120Z,283.00
2022-12-22T12:56:47.190Z,260.00
2022-12-22T12:57:47.227Z,254.00
2022-12-22T12:58:47.215Z,263.00
2022-12-22T12:59:47.187Z,240.00